sensor_id;sensor_type;location;lat;lon;timestamp;temperature;humidity
11772;DHT22;12556;55.748;13.194;2022-11-25T00:00:09;6.60;99.90
11772;DHT22;12556;55.748;13.194;2022-11-25T00:02:42;6.60;99.90
11772;DHT22;12556;55.748;13.194;2022-11-25T00:05:09;6.60;99.90
11772;DHT22;12556;55.748;13.194;2022-11-25T00:07:36;6.60;99.90
11772;DHT22;12556;55.748;13.194;2022-11-25T00:10:06;6.60;99.90
11772;DHT22;12556;55.748;13.194;2022-11-25T00:12:33;6.60;99.90
11772;DHT22;12556;55.748;13.194;2022-11-25T00:14:59;6.60;99.90
11772;DHT22;12556;55.748;13.194;2022-11-25T00:17:26;6.60;99.90
11772;DHT22;12556;55.748;13.194;2022-11-25T00:19:53;6.60;99.90
11772;DHT22;12556;55.748;13.194;2022-11-25T00:22:20;6.60;99.90
11772;DHT22;12556;55.748;13.194;2022-11-25T00:24:47;6.60;99.90
11772;DHT22;12556;55.748;13.194;2022-11-25T00:27:15;6.60;99.90
11772;DHT22;12556;55.748;13.194;2022-11-25T00:29:42;6.60;99.90
11772;DHT22;12556;55.748;13.194;2022-11-25T00:32:09;6.60;99.90
11772;DHT22;12556;55.748;13.194;2022-11-25T00:34:36;6.60;99.90
11772;DHT22;12556;55.748;13.194;2022-11-25T00:37:03;6.60;99.90
11772;DHT22;12556;55.748;13.194;2022-11-25T00:39:30;6.60;99.90
11772;DHT22;12556;55.748;13.194;2022-11-25T00:41:56;6.60;99.90
11772;DHT22;12556;55.748;13.194;2022-11-25T00:44:42;6.50;99.90
11772;DHT22;12556;55.748;13.194;2022-11-25T00:47:10;6.60;99.90
11772;DHT22;12556;55.748;13.194;2022-11-25T00:49:38;6.60;99.90
11772;DHT22;12556;55.748;13.194;2022-11-25T00:52:06;6.50;99.90
11772;DHT22;12556;55.748;13.194;2022-11-25T00:54:33;6.50;99.90
11772;DHT22;12556;55.748;13.194;2022-11-25T00:57:00;6.60;99.90
11772;DHT22;12556;55.748;13.194;2022-11-25T00:59:27;6.60;99.90
11772;DHT22;12556;55.748;13.194;2022-11-25T01:01:55;6.50;99.90
11772;DHT22;12556;55.748;13.194;2022-11-25T01:04:22;6.60;99.90
11772;DHT22;12556;55.748;13.194;2022-11-25T01:06:50;6.60;99.90
11772;DHT22;12556;55.748;13.194;2022-11-25T01:09:19;6.60;99.90
11772;DHT22;12556;55.748;13.194;2022-11-25T01:11:48;6.50;99.90
11772;DHT22;12556;55.748;13.194;2022-11-25T01:14:15;6.50;99.90
11772;DHT22;12556;55.748;13.194;2022-11-25T01:16:42;6.50;99.90
11772;DHT22;12556;55.748;13.194;2022-11-25T01:19:11;6.50;99.90
11772;DHT22;12556;55.748;13.194;2022-11-25T01:21:38;6.50;99.90
11772;DHT22;12556;55.748;13.194;2022-11-25T01:24:06;6.50;99.90
11772;DHT22;12556;55.748;13.194;2022-11-25T01:26:34;6.50;99.90
11772;DHT22;12556;55.748;13.194;2022-11-25T01:29:03;6.60;99.90
11772;DHT22;12556;55.748;13.194;2022-11-25T01:31:33;6.50;99.90
11772;DHT22;12556;55.748;13.194;2022-11-25T01:34:02;6.50;99.90
11772;DHT22;12556;55.748;13.194;2022-11-25T01:36:31;6.50;99.90
11772;DHT22;12556;55.748;13.194;2022-11-25T01:38:59;6.60;99.90
11772;DHT22;12556;55.748;13.194;2022-11-25T01:41:29;6.50;99.90
11772;DHT22;12556;55.748;13.194;2022-11-25T01:44:04;6.60;99.90
11772;DHT22;12556;55.748;13.194;2022-11-25T01:46:44;6.60;99.90
11772;DHT22;12556;55.748;13.194;2022-11-25T01:49:14;6.50;99.90
11772;DHT22;12556;55.748;13.194;2022-11-25T01:51:47;6.50;99.90
11772;DHT22;12556;55.748;13.194;2022-11-25T01:54:22;6.50;99.90
11772;DHT22;12556;55.748;13.194;2022-11-25T01:56:53;6.50;99.90
11772;DHT22;12556;55.748;13.194;2022-11-25T01:59:25;6.50;99.90
11772;DHT22;12556;55.748;13.194;2022-11-25T02:01:54;6.50;99.90
11772;DHT22;12556;55.748;13.194;2022-11-25T02:04:26;6.50;99.90
11772;DHT22;12556;55.748;13.194;2022-11-25T02:07:02;6.50;99.90
11772;DHT22;12556;55.748;13.194;2022-11-25T02:09:33;6.50;99.90
11772;DHT22;12556;55.748;13.194;2022-11-25T02:12:04;6.50;99.90
11772;DHT22;12556;55.748;13.194;2022-11-25T02:14:32;6.50;99.90
11772;DHT22;12556;55.748;13.194;2022-11-25T02:17:01;6.40;99.90
11772;DHT22;12556;55.748;13.194;2022-11-25T02:19:44;6.40;99.90
11772;DHT22;12556;55.748;13.194;2022-11-25T02:22:25;6.40;99.90
11772;DHT22;12556;55.748;13.194;2022-11-25T02:24:59;6.40;99.90
11772;DHT22;12556;55.748;13.194;2022-11-25T02:27:30;6.40;99.90
11772;DHT22;12556;55.748;13.194;2022-11-25T02:29:58;6.40;99.90
11772;DHT22;12556;55.748;13.194;2022-11-25T02:32:27;6.40;99.90
11772;DHT22;12556;55.748;13.194;2022-11-25T02:34:55;6.40;99.90
11772;DHT22;12556;55.748;13.194;2022-11-25T02:37:22;6.40;99.90
11772;DHT22;12556;55.748;13.194;2022-11-25T02:39:50;6.40;99.90
11772;DHT22;12556;55.748;13.194;2022-11-25T02:42:20;6.40;99.90
11772;DHT22;12556;55.748;13.194;2022-11-25T02:44:49;6.40;99.90
11772;DHT22;12556;55.748;13.194;2022-11-25T02:47:16;6.40;99.90
11772;DHT22;12556;55.748;13.194;2022-11-25T02:49:43;6.50;99.90
11772;DHT22;12556;55.748;13.194;2022-11-25T02:52:10;6.40;99.90
11772;DHT22;12556;55.748;13.194;2022-11-25T02:54:38;6.40;99.90
11772;DHT22;12556;55.748;13.194;2022-11-25T02:57:05;6.40;99.90
11772;DHT22;12556;55.748;13.194;2022-11-25T02:59:31;6.40;99.90
11772;DHT22;12556;55.748;13.194;2022-11-25T03:02:00;6.40;99.90
11772;DHT22;12556;55.748;13.194;2022-11-25T03:04:27;6.40;99.90
11772;DHT22;12556;55.748;13.194;2022-11-25T03:06:54;6.40;99.90
11772;DHT22;12556;55.748;13.194;2022-11-25T03:09:20;6.50;99.90
11772;DHT22;12556;55.748;13.194;2022-11-25T03:11:47;6.40;99.90
11772;DHT22;12556;55.748;13.194;2022-11-25T03:14:32;6.50;99.90
11772;DHT22;12556;55.748;13.194;2022-11-25T03:17:00;6.50;99.90
11772;DHT22;12556;55.748;13.194;2022-11-25T03:19:27;6.50;99.90
11772;DHT22;12556;55.748;13.194;2022-11-25T03:21:54;6.50;99.90
11772;DHT22;12556;55.748;13.194;2022-11-25T03:24:20;6.40;99.90
11772;DHT22;12556;55.748;13.194;2022-11-25T03:26:47;6.50;99.90
11772;DHT22;12556;55.748;13.194;2022-11-25T03:29:15;6.50;99.90
11772;DHT22;12556;55.748;13.194;2022-11-25T03:31:42;6.50;99.90
11772;DHT22;12556;55.748;13.194;2022-11-25T03:34:10;6.50;99.90
11772;DHT22;12556;55.748;13.194;2022-11-25T03:36:37;6.40;99.90
11772;DHT22;12556;55.748;13.194;2022-11-25T03:39:04;6.40;99.90
11772;DHT22;12556;55.748;13.194;2022-11-25T03:41:31;6.40;99.90
11772;DHT22;12556;55.748;13.194;2022-11-25T03:43:58;6.40;99.90
11772;DHT22;12556;55.748;13.194;2022-11-25T03:46:24;6.40;99.90
11772;DHT22;12556;55.748;13.194;2022-11-25T03:48:51;6.40;99.90
11772;DHT22;12556;55.748;13.194;2022-11-25T03:51:20;6.40;99.90
11772;DHT22;12556;55.748;13.194;2022-11-25T03:53:46;6.40;99.90
11772;DHT22;12556;55.748;13.194;2022-11-25T03:56:13;6.40;99.90
11772;DHT22;12556;55.748;13.194;2022-11-25T03:58:40;6.40;99.90
11772;DHT22;12556;55.748;13.194;2022-11-25T04:01:07;6.30;99.90
11772;DHT22;12556;55.748;13.194;2022-11-25T04:03:34;6.30;99.90
11772;DHT22;12556;55.748;13.194;2022-11-25T04:06:01;6.30;99.90
11772;DHT22;12556;55.748;13.194;2022-11-25T04:08:29;6.30;99.90
11772;DHT22;12556;55.748;13.194;2022-11-25T04:10:56;6.30;99.90
11772;DHT22;12556;55.748;13.194;2022-11-25T04:13:23;6.30;99.90
11772;DHT22;12556;55.748;13.194;2022-11-25T04:15:49;6.30;99.90
11772;DHT22;12556;55.748;13.194;2022-11-25T04:18:17;6.30;99.90
11772;DHT22;12556;55.748;13.194;2022-11-25T04:20:45;6.30;99.90
11772;DHT22;12556;55.748;13.194;2022-11-25T04:23:12;6.30;99.90
11772;DHT22;12556;55.748;13.194;2022-11-25T04:25:41;6.20;99.90
11772;DHT22;12556;55.748;13.194;2022-11-25T04:28:08;6.20;99.90
11772;DHT22;12556;55.748;13.194;2022-11-25T04:30:36;6.20;99.90
11772;DHT22;12556;55.748;13.194;2022-11-25T04:33:03;6.20;99.90
11772;DHT22;12556;55.748;13.194;2022-11-25T04:35:30;6.20;99.90
11772;DHT22;12556;55.748;13.194;2022-11-25T04:37:56;6.10;99.90
11772;DHT22;12556;55.748;13.194;2022-11-25T04:40:23;6.10;99.90
11772;DHT22;12556;55.748;13.194;2022-11-25T04:42:52;6.10;99.90
11772;DHT22;12556;55.748;13.194;2022-11-25T04:45:19;6.10;99.90
11772;DHT22;12556;55.748;13.194;2022-11-25T04:47:46;6.10;99.90
11772;DHT22;12556;55.748;13.194;2022-11-25T04:50:14;6.00;99.90
11772;DHT22;12556;55.748;13.194;2022-11-25T04:52:42;6.00;99.90
11772;DHT22;12556;55.748;13.194;2022-11-25T04:55:09;6.00;99.90
11772;DHT22;12556;55.748;13.194;2022-11-25T04:57:36;5.90;99.90
11772;DHT22;12556;55.748;13.194;2022-11-25T05:00:06;5.90;99.90
11772;DHT22;12556;55.748;13.194;2022-11-25T05:02:32;5.80;99.90
11772;DHT22;12556;55.748;13.194;2022-11-25T05:04:59;5.80;99.90
11772;DHT22;12556;55.748;13.194;2022-11-25T05:07:27;5.80;99.90
11772;DHT22;12556;55.748;13.194;2022-11-25T05:09:54;5.70;99.90
11772;DHT22;12556;55.748;13.194;2022-11-25T05:12:22;5.70;99.90
11772;DHT22;12556;55.748;13.194;2022-11-25T05:14:49;5.70;99.90
11772;DHT22;12556;55.748;13.194;2022-11-25T05:17:20;5.70;99.90
11772;DHT22;12556;55.748;13.194;2022-11-25T05:19:48;5.60;99.90
11772;DHT22;12556;55.748;13.194;2022-11-25T05:22:18;5.60;99.90
11772;DHT22;12556;55.748;13.194;2022-11-25T05:24:46;5.60;99.90
11772;DHT22;12556;55.748;13.194;2022-11-25T05:27:13;5.60;99.90
11772;DHT22;12556;55.748;13.194;2022-11-25T05:29:40;5.60;99.90
11772;DHT22;12556;55.748;13.194;2022-11-25T05:32:07;5.60;99.90
11772;DHT22;12556;55.748;13.194;2022-11-25T05:34:36;5.60;99.90
11772;DHT22;12556;55.748;13.194;2022-11-25T05:37:04;5.60;99.90
11772;DHT22;12556;55.748;13.194;2022-11-25T05:39:31;5.60;99.90
11772;DHT22;12556;55.748;13.194;2022-11-25T05:41:57;5.60;99.90
11772;DHT22;12556;55.748;13.194;2022-11-25T05:44:24;5.70;99.90
11772;DHT22;12556;55.748;13.194;2022-11-25T05:46:51;5.60;99.90
11772;DHT22;12556;55.748;13.194;2022-11-25T05:49:18;5.70;99.90
11772;DHT22;12556;55.748;13.194;2022-11-25T05:51:47;5.70;99.90
11772;DHT22;12556;55.748;13.194;2022-11-25T05:54:14;5.70;99.90
11772;DHT22;12556;55.748;13.194;2022-11-25T05:56:41;5.80;99.90
11772;DHT22;12556;55.748;13.194;2022-11-25T05:59:08;5.80;99.90
11772;DHT22;12556;55.748;13.194;2022-11-25T06:01:34;5.90;99.90
11772;DHT22;12556;55.748;13.194;2022-11-25T06:04:02;5.90;99.90
11772;DHT22;12556;55.748;13.194;2022-11-25T06:06:30;5.90;99.90
11772;DHT22;12556;55.748;13.194;2022-11-25T06:08:58;6.00;99.90
11772;DHT22;12556;55.748;13.194;2022-11-25T06:11:25;6.00;99.90
11772;DHT22;12556;55.748;13.194;2022-11-25T06:13:52;6.00;99.90
11772;DHT22;12556;55.748;13.194;2022-11-25T06:16:22;6.10;99.90
11772;DHT22;12556;55.748;13.194;2022-11-25T06:18:49;6.10;99.90
11772;DHT22;12556;55.748;13.194;2022-11-25T06:21:16;6.10;99.90
11772;DHT22;12556;55.748;13.194;2022-11-25T06:23:43;6.10;99.90
11772;DHT22;12556;55.748;13.194;2022-11-25T06:26:14;6.10;99.90
11772;DHT22;12556;55.748;13.194;2022-11-25T06:28:41;6.10;99.90
11772;DHT22;12556;55.748;13.194;2022-11-25T06:31:10;6.20;99.90
11772;DHT22;12556;55.748;13.194;2022-11-25T06:33:38;6.20;99.90
11772;DHT22;12556;55.748;13.194;2022-11-25T06:36:06;6.20;99.90
11772;DHT22;12556;55.748;13.194;2022-11-25T06:38:34;6.20;99.90
11772;DHT22;12556;55.748;13.194;2022-11-25T06:41:02;6.20;99.90
11772;DHT22;12556;55.748;13.194;2022-11-25T06:43:30;6.30;99.90
11772;DHT22;12556;55.748;13.194;2022-11-25T06:46:02;6.30;99.90
11772;DHT22;12556;55.748;13.194;2022-11-25T06:48:29;6.30;99.90
11772;DHT22;12556;55.748;13.194;2022-11-25T06:50:57;6.30;99.90
11772;DHT22;12556;55.748;13.194;2022-11-25T06:53:24;6.30;99.90
11772;DHT22;12556;55.748;13.194;2022-11-25T06:56:04;6.30;99.90
11772;DHT22;12556;55.748;13.194;2022-11-25T06:58:33;6.30;99.90
11772;DHT22;12556;55.748;13.194;2022-11-25T07:01:01;6.30;99.90
11772;DHT22;12556;55.748;13.194;2022-11-25T07:03:29;6.30;99.90
11772;DHT22;12556;55.748;13.194;2022-11-25T07:05:56;6.30;99.90
11772;DHT22;12556;55.748;13.194;2022-11-25T07:08:23;6.30;99.90
11772;DHT22;12556;55.748;13.194;2022-11-25T07:10:50;6.30;99.90
11772;DHT22;12556;55.748;13.194;2022-11-25T07:13:18;6.30;99.90
11772;DHT22;12556;55.748;13.194;2022-11-25T07:15:46;6.30;99.90
11772;DHT22;12556;55.748;13.194;2022-11-25T07:18:13;6.30;99.90
11772;DHT22;12556;55.748;13.194;2022-11-25T07:20:40;6.30;99.90
11772;DHT22;12556;55.748;13.194;2022-11-25T07:23:07;6.40;99.90
11772;DHT22;12556;55.748;13.194;2022-11-25T07:25:33;6.40;99.90
11772;DHT22;12556;55.748;13.194;2022-11-25T07:28:00;6.40;99.90
11772;DHT22;12556;55.748;13.194;2022-11-25T07:30:27;6.40;99.90
11772;DHT22;12556;55.748;13.194;2022-11-25T07:32:56;6.40;99.90
11772;DHT22;12556;55.748;13.194;2022-11-25T07:35:22;6.40;99.90
11772;DHT22;12556;55.748;13.194;2022-11-25T07:37:49;6.40;99.90
11772;DHT22;12556;55.748;13.194;2022-11-25T07:40:17;6.50;99.90
11772;DHT22;12556;55.748;13.194;2022-11-25T07:42:44;6.50;99.90
11772;DHT22;12556;55.748;13.194;2022-11-25T07:45:11;6.50;99.90
11772;DHT22;12556;55.748;13.194;2022-11-25T07:47:38;6.50;99.90
11772;DHT22;12556;55.748;13.194;2022-11-25T07:50:07;6.50;99.90
11772;DHT22;12556;55.748;13.194;2022-11-25T07:52:36;6.50;99.90
11772;DHT22;12556;55.748;13.194;2022-11-25T07:55:04;6.50;99.90
11772;DHT22;12556;55.748;13.194;2022-11-25T07:57:31;6.50;99.90
11772;DHT22;12556;55.748;13.194;2022-11-25T07:59:57;6.50;99.90
11772;DHT22;12556;55.748;13.194;2022-11-25T08:02:24;6.50;99.90
11772;DHT22;12556;55.748;13.194;2022-11-25T08:04:51;6.50;99.90
11772;DHT22;12556;55.748;13.194;2022-11-25T08:07:20;6.50;99.90
11772;DHT22;12556;55.748;13.194;2022-11-25T08:09:46;6.50;99.90
11772;DHT22;12556;55.748;13.194;2022-11-25T08:12:13;6.60;99.90
11772;DHT22;12556;55.748;13.194;2022-11-25T08:14:40;6.60;99.90
11772;DHT22;12556;55.748;13.194;2022-11-25T08:17:07;6.60;99.90
11772;DHT22;12556;55.748;13.194;2022-11-25T08:19:34;6.60;99.90
11772;DHT22;12556;55.748;13.194;2022-11-25T08:22:01;6.60;99.90
11772;DHT22;12556;55.748;13.194;2022-11-25T08:24:29;6.70;99.90
11772;DHT22;12556;55.748;13.194;2022-11-25T08:26:56;6.60;99.90
11772;DHT22;12556;55.748;13.194;2022-11-25T08:29:26;6.70;99.90
11772;DHT22;12556;55.748;13.194;2022-11-25T08:31:52;6.70;99.90
11772;DHT22;12556;55.748;13.194;2022-11-25T08:34:21;6.70;99.90
11772;DHT22;12556;55.748;13.194;2022-11-25T08:36:48;6.70;99.90
11772;DHT22;12556;55.748;13.194;2022-11-25T08:39:16;6.70;99.90
11772;DHT22;12556;55.748;13.194;2022-11-25T08:41:44;6.80;99.90
11772;DHT22;12556;55.748;13.194;2022-11-25T08:44:11;6.80;99.90
11772;DHT22;12556;55.748;13.194;2022-11-25T08:46:38;6.80;99.90
11772;DHT22;12556;55.748;13.194;2022-11-25T08:49:07;6.90;99.90
11772;DHT22;12556;55.748;13.194;2022-11-25T08:51:35;6.90;99.90
11772;DHT22;12556;55.748;13.194;2022-11-25T08:54:03;6.90;99.90
11772;DHT22;12556;55.748;13.194;2022-11-25T08:56:30;6.90;99.90
11772;DHT22;12556;55.748;13.194;2022-11-25T08:58:58;6.90;99.90
11772;DHT22;12556;55.748;13.194;2022-11-25T09:01:25;6.90;99.90
11772;DHT22;12556;55.748;13.194;2022-11-25T09:03:55;7.00;99.90
11772;DHT22;12556;55.748;13.194;2022-11-25T09:06:23;7.00;99.90
11772;DHT22;12556;55.748;13.194;2022-11-25T09:08:52;7.00;99.90
11772;DHT22;12556;55.748;13.194;2022-11-25T09:11:20;7.10;99.90
11772;DHT22;12556;55.748;13.194;2022-11-25T09:13:47;7.00;99.90
11772;DHT22;12556;55.748;13.194;2022-11-25T09:16:15;7.10;99.90
11772;DHT22;12556;55.748;13.194;2022-11-25T09:18:42;7.10;99.90
11772;DHT22;12556;55.748;13.194;2022-11-25T09:21:12;7.10;99.90
11772;DHT22;12556;55.748;13.194;2022-11-25T09:23:40;7.20;99.90
11772;DHT22;12556;55.748;13.194;2022-11-25T09:26:09;7.20;99.90
11772;DHT22;12556;55.748;13.194;2022-11-25T09:28:43;7.20;99.90
11772;DHT22;12556;55.748;13.194;2022-11-25T09:31:10;7.20;99.90
11772;DHT22;12556;55.748;13.194;2022-11-25T09:33:38;7.20;99.90
11772;DHT22;12556;55.748;13.194;2022-11-25T09:36:05;7.30;99.90
11772;DHT22;12556;55.748;13.194;2022-11-25T09:38:32;7.30;99.90
11772;DHT22;12556;55.748;13.194;2022-11-25T09:41:01;7.30;99.90
11772;DHT22;12556;55.748;13.194;2022-11-25T09:43:39;7.40;99.90
11772;DHT22;12556;55.748;13.194;2022-11-25T09:46:38;7.30;99.90
11772;DHT22;12556;55.748;13.194;2022-11-25T09:49:26;7.40;99.90
11772;DHT22;12556;55.748;13.194;2022-11-25T09:52:04;7.40;99.90
11772;DHT22;12556;55.748;13.194;2022-11-25T09:54:36;7.40;99.90
11772;DHT22;12556;55.748;13.194;2022-11-25T09:57:18;7.50;99.90
11772;DHT22;12556;55.748;13.194;2022-11-25T09:59:55;7.50;99.90
11772;DHT22;12556;55.748;13.194;2022-11-25T10:02:32;7.50;99.90
11772;DHT22;12556;55.748;13.194;2022-11-25T10:05:06;7.50;99.90
11772;DHT22;12556;55.748;13.194;2022-11-25T10:07:38;7.50;99.90
11772;DHT22;12556;55.748;13.194;2022-11-25T10:10:17;7.60;99.90
11772;DHT22;12556;55.748;13.194;2022-11-25T10:12:46;7.60;99.90
11772;DHT22;12556;55.748;13.194;2022-11-25T10:15:17;7.60;99.90
11772;DHT22;12556;55.748;13.194;2022-11-25T10:17:47;7.60;99.90
11772;DHT22;12556;55.748;13.194;2022-11-25T10:20:20;7.60;99.90
11772;DHT22;12556;55.748;13.194;2022-11-25T10:22:49;7.60;99.90
11772;DHT22;12556;55.748;13.194;2022-11-25T10:25:20;7.70;99.90
11772;DHT22;12556;55.748;13.194;2022-11-25T10:27:52;7.70;99.90
11772;DHT22;12556;55.748;13.194;2022-11-25T10:30:22;7.70;99.90
11772;DHT22;12556;55.748;13.194;2022-11-25T10:32:52;7.70;99.90
11772;DHT22;12556;55.748;13.194;2022-11-25T10:35:27;7.70;99.90
11772;DHT22;12556;55.748;13.194;2022-11-25T10:37:57;7.70;99.90
11772;DHT22;12556;55.748;13.194;2022-11-25T10:40:24;7.70;99.90
11772;DHT22;12556;55.748;13.194;2022-11-25T10:42:51;7.70;99.90
11772;DHT22;12556;55.748;13.194;2022-11-25T10:45:21;7.70;99.90
11772;DHT22;12556;55.748;13.194;2022-11-25T10:48:01;7.80;99.90
11772;DHT22;12556;55.748;13.194;2022-11-25T10:50:40;7.80;99.90
11772;DHT22;12556;55.748;13.194;2022-11-25T10:53:16;7.80;99.90
11772;DHT22;12556;55.748;13.194;2022-11-25T10:55:56;7.80;99.90
11772;DHT22;12556;55.748;13.194;2022-11-25T10:58:30;7.80;99.90
11772;DHT22;12556;55.748;13.194;2022-11-25T11:01:03;7.80;99.90
11772;DHT22;12556;55.748;13.194;2022-11-25T11:03:30;7.80;99.90
11772;DHT22;12556;55.748;13.194;2022-11-25T11:05:58;7.80;99.90
11772;DHT22;12556;55.748;13.194;2022-11-25T11:08:26;7.90;99.90
11772;DHT22;12556;55.748;13.194;2022-11-25T11:11:14;7.90;99.90
11772;DHT22;12556;55.748;13.194;2022-11-25T11:13:43;7.90;99.90
11772;DHT22;12556;55.748;13.194;2022-11-25T11:16:30;7.90;99.90
11772;DHT22;12556;55.748;13.194;2022-11-25T11:18:59;7.90;99.90
11772;DHT22;12556;55.748;13.194;2022-11-25T11:21:31;8.00;99.90
11772;DHT22;12556;55.748;13.194;2022-11-25T11:24:00;8.00;99.90
11772;DHT22;12556;55.748;13.194;2022-11-25T11:26:29;8.00;99.90
11772;DHT22;12556;55.748;13.194;2022-11-25T11:28:58;8.00;99.90
11772;DHT22;12556;55.748;13.194;2022-11-25T11:31:28;8.00;99.90
11772;DHT22;12556;55.748;13.194;2022-11-25T11:34:02;8.00;99.90
11772;DHT22;12556;55.748;13.194;2022-11-25T11:36:45;8.00;99.90
11772;DHT22;12556;55.748;13.194;2022-11-25T11:39:27;8.00;99.90
11772;DHT22;12556;55.748;13.194;2022-11-25T11:42:05;8.00;99.90
11772;DHT22;12556;55.748;13.194;2022-11-25T11:44:38;8.00;99.90
11772;DHT22;12556;55.748;13.194;2022-11-25T11:47:21;8.00;99.90
11772;DHT22;12556;55.748;13.194;2022-11-25T11:50:17;8.00;99.90
11772;DHT22;12556;55.748;13.194;2022-11-25T11:52:56;8.00;99.90
11772;DHT22;12556;55.748;13.194;2022-11-25T11:55:48;8.00;99.90
11772;DHT22;12556;55.748;13.194;2022-11-25T11:58:28;8.10;99.90
11772;DHT22;12556;55.748;13.194;2022-11-25T12:01:02;8.10;99.90
11772;DHT22;12556;55.748;13.194;2022-11-25T12:03:34;8.10;99.90
11772;DHT22;12556;55.748;13.194;2022-11-25T12:06:05;8.10;99.90
11772;DHT22;12556;55.748;13.194;2022-11-25T12:08:39;8.10;99.90
11772;DHT22;12556;55.748;13.194;2022-11-25T12:11:11;8.20;99.90
11772;DHT22;12556;55.748;13.194;2022-11-25T12:13:44;8.10;99.90
11772;DHT22;12556;55.748;13.194;2022-11-25T12:16:16;8.10;99.90
11772;DHT22;12556;55.748;13.194;2022-11-25T12:18:49;8.10;99.90
11772;DHT22;12556;55.748;13.194;2022-11-25T12:21:32;8.20;99.90
11772;DHT22;12556;55.748;13.194;2022-11-25T12:24:12;8.10;99.90
11772;DHT22;12556;55.748;13.194;2022-11-25T12:26:45;8.20;99.90
11772;DHT22;12556;55.748;13.194;2022-11-25T12:29:21;8.20;99.90
11772;DHT22;12556;55.748;13.194;2022-11-25T12:31:55;8.10;99.90
11772;DHT22;12556;55.748;13.194;2022-11-25T12:34:29;8.20;99.90
11772;DHT22;12556;55.748;13.194;2022-11-25T12:37:05;8.20;99.90
11772;DHT22;12556;55.748;13.194;2022-11-25T12:39:39;8.20;99.90
11772;DHT22;12556;55.748;13.194;2022-11-25T12:42:14;8.20;99.90
11772;DHT22;12556;55.748;13.194;2022-11-25T12:44:48;8.10;99.90
11772;DHT22;12556;55.748;13.194;2022-11-25T12:47:19;8.20;99.90
11772;DHT22;12556;55.748;13.194;2022-11-25T12:49:49;8.20;99.90
11772;DHT22;12556;55.748;13.194;2022-11-25T12:52:41;8.20;99.90
11772;DHT22;12556;55.748;13.194;2022-11-25T12:55:16;8.20;99.90
11772;DHT22;12556;55.748;13.194;2022-11-25T12:58:06;8.20;99.90
11772;DHT22;12556;55.748;13.194;2022-11-25T13:00:47;8.20;99.90
11772;DHT22;12556;55.748;13.194;2022-11-25T13:09:51;8.10;99.90
11772;DHT22;12556;55.748;13.194;2022-11-25T13:12:31;8.00;99.90
11772;DHT22;12556;55.748;13.194;2022-11-25T13:15:18;8.00;99.90
11772;DHT22;12556;55.748;13.194;2022-11-25T13:17:46;7.90;99.90
11772;DHT22;12556;55.748;13.194;2022-11-25T13:20:42;7.90;99.90
11772;DHT22;12556;55.748;13.194;2022-11-25T13:23:27;7.90;99.90
11772;DHT22;12556;55.748;13.194;2022-11-25T13:28:58;7.90;99.90
11772;DHT22;12556;55.748;13.194;2022-11-25T13:31:30;7.80;99.90
11772;DHT22;12556;55.748;13.194;2022-11-25T13:36:45;7.90;99.90
11772;DHT22;12556;55.748;13.194;2022-11-25T13:39:15;7.90;99.90
11772;DHT22;12556;55.748;13.194;2022-11-25T13:41:56;8.00;99.90
11772;DHT22;12556;55.748;13.194;2022-11-25T13:44:27;7.90;99.90
11772;DHT22;12556;55.748;13.194;2022-11-25T13:46:58;7.90;99.90
11772;DHT22;12556;55.748;13.194;2022-11-25T13:49:30;7.90;99.90
11772;DHT22;12556;55.748;13.194;2022-11-25T13:52:01;7.90;99.90
11772;DHT22;12556;55.748;13.194;2022-11-25T13:54:34;7.90;99.90
11772;DHT22;12556;55.748;13.194;2022-11-25T13:57:20;7.90;99.90
11772;DHT22;12556;55.748;13.194;2022-11-25T13:59:57;7.80;99.90
11772;DHT22;12556;55.748;13.194;2022-11-25T14:02:41;7.80;99.90
11772;DHT22;12556;55.748;13.194;2022-11-25T14:05:37;7.70;99.90
11772;DHT22;12556;55.748;13.194;2022-11-25T14:08:17;7.70;99.90
11772;DHT22;12556;55.748;13.194;2022-11-25T14:10:52;7.70;99.90
11772;DHT22;12556;55.748;13.194;2022-11-25T14:13:40;7.70;99.90
11772;DHT22;12556;55.748;13.194;2022-11-25T14:16:24;7.60;99.90
11772;DHT22;12556;55.748;13.194;2022-11-25T14:19:19;7.60;99.90
11772;DHT22;12556;55.748;13.194;2022-11-25T14:22:01;7.60;99.90
11772;DHT22;12556;55.748;13.194;2022-11-25T14:24:34;7.60;99.90
11772;DHT22;12556;55.748;13.194;2022-11-25T14:27:04;7.50;99.90
11772;DHT22;12556;55.748;13.194;2022-11-25T14:29:39;7.60;99.90
11772;DHT22;12556;55.748;13.194;2022-11-25T14:32:13;7.50;99.90
11772;DHT22;12556;55.748;13.194;2022-11-25T14:34:42;7.50;99.90
11772;DHT22;12556;55.748;13.194;2022-11-25T14:37:15;7.50;99.90
11772;DHT22;12556;55.748;13.194;2022-11-25T14:39:47;7.50;99.90
11772;DHT22;12556;55.748;13.194;2022-11-25T14:42:18;7.50;99.90
11772;DHT22;12556;55.748;13.194;2022-11-25T14:44:47;7.50;99.90
11772;DHT22;12556;55.748;13.194;2022-11-25T14:47:20;7.40;99.90
11772;DHT22;12556;55.748;13.194;2022-11-25T14:49:49;7.40;99.90
11772;DHT22;12556;55.748;13.194;2022-11-25T14:52:18;7.40;99.90
11772;DHT22;12556;55.748;13.194;2022-11-25T14:54:47;7.40;99.90
11772;DHT22;12556;55.748;13.194;2022-11-25T14:57:18;7.40;99.90
11772;DHT22;12556;55.748;13.194;2022-11-25T14:59:47;7.40;99.90
11772;DHT22;12556;55.748;13.194;2022-11-25T15:02:39;7.40;99.90
11772;DHT22;12556;55.748;13.194;2022-11-25T15:05:16;7.40;99.90
11772;DHT22;12556;55.748;13.194;2022-11-25T15:07:54;7.30;99.90
11772;DHT22;12556;55.748;13.194;2022-11-25T15:10:37;7.30;99.90
11772;DHT22;12556;55.748;13.194;2022-11-25T15:13:10;7.30;99.90
11772;DHT22;12556;55.748;13.194;2022-11-25T15:15:39;7.30;99.90
11772;DHT22;12556;55.748;13.194;2022-11-25T15:18:09;7.30;99.90
11772;DHT22;12556;55.748;13.194;2022-11-25T15:20:44;7.20;99.90
11772;DHT22;12556;55.748;13.194;2022-11-25T15:23:15;7.20;99.90
11772;DHT22;12556;55.748;13.194;2022-11-25T15:25:49;7.20;99.90
11772;DHT22;12556;55.748;13.194;2022-11-25T15:28:16;7.10;99.90
11772;DHT22;12556;55.748;13.194;2022-11-25T15:30:54;7.10;99.90
11772;DHT22;12556;55.748;13.194;2022-11-25T15:33:24;7.10;99.90
11772;DHT22;12556;55.748;13.194;2022-11-25T15:35:51;7.20;99.90
11772;DHT22;12556;55.748;13.194;2022-11-25T15:38:19;7.30;99.90
11772;DHT22;12556;55.748;13.194;2022-11-25T15:41:00;7.30;99.90
11772;DHT22;12556;55.748;13.194;2022-11-25T15:43:29;7.20;99.90
11772;DHT22;12556;55.748;13.194;2022-11-25T15:46:00;7.20;99.90
11772;DHT22;12556;55.748;13.194;2022-11-25T15:48:32;7.10;99.90
11772;DHT22;12556;55.748;13.194;2022-11-25T15:51:02;7.10;99.90
11772;DHT22;12556;55.748;13.194;2022-11-25T15:53:31;7.00;99.90
11772;DHT22;12556;55.748;13.194;2022-11-25T15:56:03;7.00;99.90
11772;DHT22;12556;55.748;13.194;2022-11-25T15:58:31;7.00;99.90
11772;DHT22;12556;55.748;13.194;2022-11-25T16:01:03;6.90;99.90
11772;DHT22;12556;55.748;13.194;2022-11-25T16:03:32;6.90;99.90